Terminal Aerodrome Forecast
Issued by NWS Knoxville/Tri Cities, TN

Home | Current Version | Previous Version | Text Only | Print | Product List | Glossary On
Versions: 1 2 3 4 5 6 7 8 9 10 11 12 13 14
000
FTUS44 KMRX 191733
TAFCHA
TAF
KCHA 191733Z 1918/2018 22004KT P6SM SKC
     FM200600 00000KT P6SM SCT030
      TEMPO 2010/2014 BKN020=

USA.gov is the U.S. government's official web portal to all federal, state and local government web resources and services.